Time;durP1;ratioP1;P1;durP2;ratioP2;P2;SDS_P1;SDS_P2;PMS_P1;PMS_P2;Temp;Humidity;BMP_temperature;BMP_pressure;BME280_temperature;BME280_humidity;BME280_pressure;Samples;Min_cycle;Max_cycle;Signal;HPM_P1;HPM_P2
2023/10/19 00:00:48;;;;;;;9.23;5.80;;;11.70;96.00;;;;;;4955979;29;20039;-77
2023/10/19 00:03:18;;;;;;;11.55;6.50;;;11.70;96.00;;;;;;4955954;29;20163;-77
2023/10/19 00:05:46;;;;;;;11.38;7.40;;;11.70;96.40;;;;;;4955498;29;20090;-77
2023/10/19 00:10:38;;;;;;;13.73;6.47;;;11.70;96.60;;;;;;4955738;29;20102;-77
2023/10/19 00:13:05;;;;;;;9.07;5.80;;;11.80;96.40;;;;;;4955062;29;20041;-77
2023/10/19 00:15:34;;;;;;;8.02;5.95;;;11.80;96.50;;;;;;4955802;29;20042;-77
2023/10/19 00:18:08;;;;;;;11.07;6.72;;;11.80;96.50;;;;;;4955598;29;20062;-77
2023/10/19 00:20:51;;;;;;;9.20;6.47;;;11.90;96.90;;;;;;4938112;29;20083;-77
2023/10/19 00:23:24;;;;;;;11.05;6.55;;;11.90;97.30;;;;;;4955625;29;20102;-77
2023/10/19 00:25:53;;;;;;;10.45;7.15;;;11.90;97.10;;;;;;4955015;29;20488;-77
2023/10/19 00:28:19;;;;;;;8.82;6.72;;;11.90;97.10;;;;;;4955381;29;20488;-77
2023/10/19 00:30:47;;;;;;;12.02;7.85;;;11.90;97.50;;;;;;4955580;29;20043;-78
2023/10/19 00:33:17;;;;;;;10.30;7.45;;;12.00;97.80;;;;;;4954762;29;20059;-76
2023/10/19 00:35:46;;;;;;;11.27;7.75;;;12.00;97.90;;;;;;4955354;29;20031;-78
2023/10/19 00:38:27;;;;;;;10.68;7.07;;;12.00;98.00;;;;;;4954835;28;20035;-77
2023/10/19 00:41:05;;;;;;;10.95;8.10;;;12.00;97.90;;;;;;4954680;29;20432;-78
2023/10/19 00:43:37;;;;;;;12.20;7.68;;;12.00;98.10;;;;;;4955224;29;20028;-78
2023/10/19 00:48:53;;;;;;;10.80;7.38;;;12.00;98.20;;;;;;4955076;29;20058;-77
2023/10/19 00:54:10;;;;;;;10.88;7.20;;;12.10;98.90;;;;;;4955005;29;20118;-78
2023/10/19 00:56:37;;;;;;;11.57;8.07;;;12.00;98.60;;;;;;4953467;29;20035;-77
2023/10/19 00:59:19;;;;;;;10.98;7.90;;;12.10;98.80;;;;;;4955283;29;20518;-77
2023/10/19 01:01:48;;;;;;;13.57;8.30;;;12.10;98.80;;;;;;4953852;29;20051;-77
2023/10/19 01:04:15;;;;;;;12.65;8.63;;;12.10;98.90;;;;;;4953657;29;20118;-77
2023/10/19 01:07:00;;;;;;;11.55;8.35;;;12.10;99.30;;;;;;4937529;29;20038;-77
2023/10/19 01:09:34;;;;;;;12.90;8.77;;;12.10;99.10;;;;;;4954415;29;20032;-78
2023/10/19 01:12:05;;;;;;;;;;;12.10;99.10;;;;;;4955176;29;20031;-77
2023/10/19 01:14:32;;;;;;;12.95;8.35;;;12.10;99.40;;;;;;4954211;29;19974;-77
2023/10/19 01:16:58;;;;;;;14.25;8.23;;;12.10;99.40;;;;;;4937327;29;20035;-77
2023/10/19 01:19:27;;;;;;;12.95;8.52;;;12.10;99.30;;;;;;4954626;29;20043;-77
2023/10/19 01:21:58;;;;;;;13.13;8.07;;;12.10;99.40;;;;;;4954646;29;20030;-77
2023/10/19 01:24:42;;;;;;;14.13;9.63;;;12.20;99.50;;;;;;4953998;29;20460;-77
2023/10/19 01:27:10;;;;;;;13.65;9.45;;;12.20;99.80;;;;;;4954594;29;20031;-77
2023/10/19 01:29:38;;;;;;;12.60;8.75;;;12.20;99.80;;;;;;4954401;29;20051;-77
2023/10/19 01:32:11;;;;;;;13.02;8.57;;;12.20;99.80;;;;;;4954747;29;20038;-77
2023/10/19 01:34:37;;;;;;;15.55;9.40;;;12.30;99.80;;;;;;4954104;29;20472;-77
2023/10/19 01:37:04;;;;;;;14.90;9.00;;;12.30;99.90;;;;;;4954318;29;20085;-77
2023/10/19 01:39:36;;;;;;;13.75;9.13;;;12.30;99.90;;;;;;4954309;29;20038;-77
2023/10/19 01:42:04;;;;;;;12.68;8.10;;;12.30;99.90;;;;;;4954553;29;20035;-76
2023/10/19 01:44:30;;;;;;;14.05;8.43;;;12.30;99.90;;;;;;4954338;29;20035;-77
2023/10/19 01:46:56;;;;;;;12.93;7.93;;;12.30;99.90;;;;;;4954411;29;20035;-77
2023/10/19 01:49:28;;;;;;;12.55;8.38;;;12.40;99.90;;;;;;4938897;29;20038;-77
2023/10/19 01:51:54;;;;;;;14.70;9.02;;;12.40;99.90;;;;;;4958409;29;20031;-76
2023/10/19 01:54:24;;;;;;;15.07;8.88;;;12.40;99.90;;;;;;4957748;29;20106;-76
2023/10/19 01:56:56;;;;;;;11.90;8.60;;;12.50;99.90;;;;;;4958075;29;20086;-77
2023/10/19 01:59:29;;;;;;;13.52;9.00;;;12.40;99.90;;;;;;4957789;29;20059;-76
2023/10/19 02:01:56;;;;;;;13.65;7.93;;;12.50;99.90;;;;;;4958392;29;20032;-76
2023/10/19 02:04:21;;;;;;;14.55;8.30;;;12.50;99.90;;;;;;4957951;29;20070;-77
2023/10/19 02:06:48;;;;;;;13.25;8.27;;;12.50;99.90;;;;;;4957858;29;20032;-76
2023/10/19 02:11:45;;;;;;;11.27;7.70;;;12.60;99.90;;;;;;4957961;29;20643;-76
2023/10/19 02:14:14;;;;;;;11.65;7.80;;;12.60;99.90;;;;;;4957937;29;20032;-77
2023/10/19 02:16:52;;;;;;;11.75;7.68;;;12.70;99.90;;;;;;4958067;29;20127;-77
2023/10/19 02:19:21;;;;;;;10.77;6.68;;;12.70;99.90;;;;;;4957825;29;20518;-77
2023/10/19 02:21:52;;;;;;;12.27;7.22;;;12.70;99.90;;;;;;4957240;29;20040;-76
2023/10/19 02:24:18;;;;;;;11.48;7.13;;;12.70;99.90;;;;;;4957631;29;20035;-78
2023/10/19 02:26:46;;;;;;;11.27;6.65;;;12.80;99.90;;;;;;4940591;29;20035;-78
2023/10/19 02:29:13;;;;;;;10.40;7.07;;;12.80;99.90;;;;;;4958017;29;20074;-78
2023/10/19 02:31:42;;;;;;;11.30;7.25;;;12.90;99.90;;;;;;4957883;29;20043;-77
2023/10/19 02:34:10;;;;;;;10.18;6.78;;;12.90;99.90;;;;;;4957326;29;20086;-78
2023/10/19 02:36:37;;;;;;;10.90;6.88;;;12.90;99.90;;;;;;4957283;29;20114;-77
2023/10/19 02:39:10;;;;;;;9.93;6.30;;;13.00;99.90;;;;;;4957640;29;20031;-78
2023/10/19 02:41:47;;;;;;;10.47;6.70;;;13.00;99.90;;;;;;4940125;29;20090;-78
2023/10/19 02:46:50;;;;;;;10.70;6.20;;;13.10;99.90;;;;;;4957473;29;20096;-77
2023/10/19 02:49:20;;;;;;;9.07;6.05;;;13.10;99.90;;;;;;4957466;29;20110;-78
2023/10/19 02:51:47;;;;;;;8.73;5.35;;;13.20;99.90;;;;;;4955568;29;20196;-78
2023/10/19 02:54:20;;;;;;;7.88;5.22;;;13.20;99.90;;;;;;4957432;29;20038;-78
2023/10/19 02:56:51;;;;;;;7.40;4.88;;;13.20;99.90;;;;;;4957647;29;20032;-78
2023/10/19 02:59:22;;;;;;;9.32;5.30;;;13.30;99.90;;;;;;4957312;28;20064;-75
2023/10/19 03:01:48;;;;;;;7.72;5.05;;;13.30;99.90;;;;;;4956157;29;20039;-77
2023/10/19 03:04:15;;;;;;;10.73;4.95;;;13.30;99.90;;;;;;4956979;29;20039;-78
2023/10/19 03:06:41;;;;;;;7.65;4.85;;;13.40;99.90;;;;;;4939667;29;20046;-78
2023/10/19 03:09:28;;;;;;;9.98;4.55;;;13.40;99.90;;;;;;4956978;29;20256;-78
2023/10/19 03:11:59;;;;;;;7.82;5.25;;;13.40;99.90;;;;;;4956575;29;20138;-78
2023/10/19 03:14:28;;;;;;;10.65;5.90;;;13.50;99.90;;;;;;4956465;29;20051;-76
2023/10/19 03:16:57;;;;;;;9.15;4.63;;;13.50;99.90;;;;;;4956863;29;20525;-78
2023/10/19 03:19:24;;;;;;;9.57;5.40;;;13.50;99.90;;;;;;4956201;29;20049;-78
2023/10/19 03:21:50;;;;;;;8.23;5.03;;;13.60;99.90;;;;;;4956701;29;20046;-78
2023/10/19 03:24:35;;;;;;;8.88;5.10;;;13.60;99.90;;;;;;4956532;29;20051;-75
2023/10/19 03:29:54;;;;;;;7.75;4.93;;;13.60;99.90;;;;;;4956475;29;20122;-76
2023/10/19 03:32:35;;;;;;;10.30;3.75;;;13.60;99.90;;;;;;4939522;29;20043;-76
2023/10/19 03:35:01;;;;;;;10.15;3.85;;;13.70;99.90;;;;;;4956056;29;20047;-76
2023/10/19 03:37:31;;;;;;;7.18;3.60;;;13.70;99.90;;;;;;4954924;29;20032;-76
2023/10/19 03:39:57;;;;;;;7.22;3.03;;;13.80;99.90;;;;;;4939169;29;20023;-76
2023/10/19 03:42:26;;;;;;;5.90;2.63;;;13.80;99.90;;;;;;4955953;29;20088;-77
2023/10/19 03:44:57;;;;;;;4.30;1.88;;;13.80;99.90;;;;;;4943981;28;20482;-77
2023/10/19 03:47:34;;;;;;;6.18;2.67;;;13.80;99.90;;;;;;4956733;28;20039;-77
2023/10/19 03:50:06;;;;;;;6.43;3.05;;;13.90;99.90;;;;;;4955557;29;20028;-77
2023/10/19 03:52:37;;;;;;;7.15;1.80;;;13.90;99.90;;;;;;4956157;29;20027;-77
2023/10/19 03:55:06;;;;;;;4.63;1.73;;;13.90;99.90;;;;;;4955987;29;20031;-77
2023/10/19 03:57:35;;;;;;;6.68;1.70;;;14.00;99.90;;;;;;4955969;29;20503;-78
2023/10/19 04:00:00;;;;;;;5.53;1.42;;;14.00;99.90;;;;;;4956006;29;20031;-77
2023/10/19 04:02:29;;;;;;;6.05;1.52;;;14.00;99.90;;;;;;4955953;29;20038;-77
2023/10/19 04:04:57;;;;;;;3.85;1.70;;;14.10;99.90;;;;;;4940959;28;20086;-77
2023/10/19 04:07:25;;;;;;;3.85;1.48;;;14.10;99.90;;;;;;4955941;29;20483;-77
2023/10/19 04:12:38;;;;;;;7.03;1.70;;;14.10;99.90;;;;;;4955022;28;20087;-77
2023/10/19 04:15:16;;;;;;;7.07;1.92;;;14.10;99.90;;;;;;4938320;29;20066;-77
2023/10/19 04:17:43;;;;;;;6.32;1.73;;;14.10;99.90;;;;;;4955466;29;20376;-77
2023/10/19 04:20:41;;;;;;;5.13;1.77;;;14.10;99.90;;;;;;4955830;29;20050;-77
2023/10/19 04:23:06;;;;;;;6.70;2.58;;;14.10;99.90;;;;;;4954463;29;20387;-77
2023/10/19 04:25:31;;;;;;;4.68;2.58;;;14.20;99.90;;;;;;4939807;29;20039;-77
2023/10/19 04:27:57;;;;;;;5.28;2.15;;;14.20;99.90;;;;;;4938134;29;20039;-77
2023/10/19 04:30:23;;;;;;;5.28;2.83;;;14.20;99.90;;;;;;4955496;29;20091;-77
2023/10/19 04:32:50;;;;;;;6.20;2.65;;;14.20;99.90;;;;;;4954686;29;20036;-77
2023/10/19 04:35:22;;;;;;;7.65;3.08;;;14.20;99.90;;;;;;4955348;29;20162;-77
2023/10/19 04:37:54;;;;;;;8.25;3.20;;;14.20;99.90;;;;;;4955556;29;20035;-78
2023/10/19 04:40:22;;;;;;;7.75;3.10;;;14.10;99.90;;;;;;4955724;29;20468;-77
2023/10/19 04:42:50;;;;;;;6.10;2.88;;;14.20;99.90;;;;;;4955440;29;20027;-77
2023/10/19 04:45:15;;;;;;;5.57;3.13;;;14.20;99.90;;;;;;4955176;29;20484;-77
2023/10/19 04:47:41;;;;;;;5.07;2.80;;;14.20;99.90;;;;;;4955073;29;20088;-77
2023/10/19 04:50:10;;;;;;;7.07;2.75;;;14.20;99.90;;;;;;4938114;29;20411;-78
2023/10/19 04:52:36;;;;;;;8.07;2.63;;;14.20;99.90;;;;;;4955166;29;20031;-78
2023/10/19 04:55:02;;;;;;;6.78;2.92;;;14.20;99.90;;;;;;4954085;29;20118;-78
2023/10/19 04:57:28;;;;;;;7.63;2.90;;;14.20;99.90;;;;;;4954751;29;20067;-78
2023/10/19 04:59:53;;;;;;;6.25;2.70;;;14.20;99.90;;;;;;4954810;29;20031;-78
2023/10/19 05:02:19;;;;;;;6.40;2.88;;;14.10;99.90;;;;;;4953287;29;20117;-78
2023/10/19 05:04:45;;;;;;;6.25;3.10;;;14.10;99.90;;;;;;4954617;29;20063;-79
2023/10/19 05:07:16;;;;;;;7.68;2.70;;;14.10;99.90;;;;;;4954737;29;20091;-79
2023/10/19 05:09:45;;;;;;;5.07;2.63;;;14.00;99.90;;;;;;4955246;29;20031;-79
2023/10/19 05:12:11;;;;;;;5.78;2.97;;;14.00;99.90;;;;;;4955147;29;20035;-79
2023/10/19 05:14:38;;;;;;;5.47;2.55;;;14.00;99.90;;;;;;4954297;29;20093;-79
2023/10/19 05:17:05;;;;;;;6.25;2.70;;;13.90;99.90;;;;;;4960529;28;20057;-79
2023/10/19 05:19:34;;;;;;;5.38;2.53;;;13.90;99.90;;;;;;4973483;28;20484;-78
2023/10/19 05:22:01;;;;;;;5.63;2.65;;;13.90;99.90;;;;;;4962294;28;20038;-79
2023/10/19 05:24:28;;;;;;;7.88;2.95;;;13.90;99.90;;;;;;4961508;28;20031;-78
2023/10/19 05:26:54;;;;;;;7.85;2.88;;;13.90;99.90;;;;;;4964232;28;20060;-78
2023/10/19 05:29:20;;;;;;;5.38;2.38;;;13.90;99.90;;;;;;4962771;28;20043;-79
2023/10/19 05:31:46;;;;;;;7.38;2.03;;;13.90;99.90;;;;;;4964645;28;20031;-79
2023/10/19 05:34:12;;;;;;;8.05;2.17;;;13.90;99.90;;;;;;4971823;28;20038;-78
2023/10/19 05:36:39;;;;;;;5.43;2.33;;;13.90;99.90;;;;;;4964215;28;20178;-79
2023/10/19 05:39:07;;;;;;;5.43;2.30;;;13.90;99.90;;;;;;4964503;28;20538;-79
2023/10/19 05:41:34;;;;;;;4.63;2.38;;;13.90;99.90;;;;;;4964747;28;20111;-78
2023/10/19 05:43:59;;;;;;;3.97;1.90;;;13.90;99.90;;;;;;4956696;28;20043;-79
2023/10/19 05:46:25;;;;;;;5.05;2.33;;;14.00;99.90;;;;;;4954175;29;20038;-78
2023/10/19 05:48:53;;;;;;;4.13;2.00;;;14.00;99.90;;;;;;4954586;29;20063;-78
2023/10/19 05:51:19;;;;;;;4.13;1.60;;;14.00;99.90;;;;;;4949510;28;20031;-79
2023/10/19 05:53:45;;;;;;;5.85;1.60;;;14.00;99.90;;;;;;4944065;28;20045;-78
2023/10/19 05:56:11;;;;;;;5.13;2.35;;;14.10;99.90;;;;;;4973162;28;20111;-78
2023/10/19 05:58:37;;;;;;;7.32;1.67;;;14.10;99.90;;;;;;4956530;28;20551;-78
2023/10/19 06:01:03;;;;;;;5.70;1.95;;;14.10;99.90;;;;;;4969206;28;20028;-77
2023/10/19 06:03:28;;;;;;;8.52;1.92;;;14.10;99.90;;;;;;4954250;29;20042;-78
2023/10/19 06:05:56;;;;;;;2.63;1.17;;;14.20;99.90;;;;;;4936998;29;20032;-79
2023/10/19 06:08:22;;;;;;;4.03;1.63;;;14.20;99.90;;;;;;4954376;29;20046;-78
2023/10/19 06:10:54;;;;;;;6.97;1.58;;;14.20;99.90;;;;;;4954358;29;20053;-78
2023/10/19 06:13:21;;;;;;;4.78;1.42;;;14.20;99.90;;;;;;4953497;29;20043;-78
2023/10/19 06:15:48;;;;;;;5.75;1.27;;;14.20;99.90;;;;;;4954266;29;20034;-79
2023/10/19 06:18:14;;;;;;;8.48;1.50;;;14.30;99.90;;;;;;4954321;29;20079;-79
2023/10/19 06:20:47;;;;;;;8.43;1.52;;;14.30;99.90;;;;;;4954101;29;20436;-79
2023/10/19 06:23:12;;;;;;;5.18;1.63;;;14.30;99.90;;;;;;4953999;29;20475;-78
2023/10/19 06:25:38;;;;;;;4.93;1.42;;;14.30;99.90;;;;;;4954267;29;20050;-79
2023/10/19 06:28:05;;;;;;;4.32;1.20;;;14.40;99.90;;;;;;4954424;29;20050;-79
2023/10/19 06:30:32;;;;;;;4.25;1.20;;;14.40;99.90;;;;;;4954424;29;20506;-78
2023/10/19 06:33:02;;;;;;;5.25;1.75;;;14.50;99.90;;;;;;4954386;29;20038;-77
2023/10/19 06:35:31;;;;;;;4.60;1.92;;;14.40;99.90;;;;;;4955874;28;20043;-79
2023/10/19 06:37:58;;;;;;;4.05;1.10;;;14.40;99.90;;;;;;4940319;29;20090;-80
2023/10/19 06:40:27;;;;;;;6.35;1.52;;;14.50;99.90;;;;;;4940084;29;20038;-80
2023/10/19 06:42:57;;;;;;;5.68;1.60;;;14.50;99.90;;;;;;4957519;29;20155;-79
2023/10/19 06:45:25;;;;;;;5.20;1.55;;;14.50;99.90;;;;;;4940484;29;20392;-79
2023/10/19 06:47:52;;;;;;;5.57;2.05;;;14.50;99.90;;;;;;4957497;29;20480;-78
2023/10/19 06:50:20;;;;;;;5.35;1.40;;;14.50;99.90;;;;;;4957381;29;20035;-79
2023/10/19 06:52:47;;;;;;;3.80;1.20;;;14.60;99.90;;;;;;4957627;29;20472;-80
2023/10/19 06:55:13;;;;;;;6.55;1.75;;;14.60;99.90;;;;;;4940001;29;20031;-78
2023/10/19 06:57:47;;;;;;;3.95;1.25;;;14.60;99.90;;;;;;4956999;29;20035;-79
2023/10/19 07:00:16;;;;;;;6.57;1.23;;;14.60;99.90;;;;;;4957752;29;20436;-79
2023/10/19 07:02:51;;;;;;;5.13;1.23;;;14.60;99.90;;;;;;4957369;29;20574;-79
2023/10/19 07:05:18;;;;;;;4.00;1.20;;;14.70;99.90;;;;;;4940363;29;20102;-79
2023/10/19 07:07:45;;;;;;;5.85;1.33;;;14.70;99.90;;;;;;4940392;29;20059;-78
2023/10/19 07:10:13;;;;;;;6.20;1.50;;;14.70;99.90;;;;;;4939857;29;20371;-80
2023/10/19 07:12:44;;;;;;;9.02;1.50;;;14.70;99.90;;;;;;4956674;29;20047;-79
2023/10/19 07:15:18;;;;;;;5.40;1.50;;;14.80;99.90;;;;;;4939606;29;20099;-81
2023/10/19 07:17:46;;;;;;;4.90;0.90;;;14.80;99.90;;;;;;4939840;29;20169;-79
2023/10/19 07:20:25;;;;;;;6.50;1.08;;;14.80;99.90;;;;;;4957060;29;20493;-79
2023/10/19 07:22:51;;;;;;;3.60;0.80;;;14.80;99.90;;;;;;4939895;29;20032;-78
2023/10/19 07:25:20;;;;;;;3.20;1.10;;;14.90;99.90;;;;;;4956697;29;20134;-79
2023/10/19 07:27:47;;;;;;;5.13;0.80;;;14.90;99.90;;;;;;4939540;29;20043;-79
2023/10/19 07:30:15;;;;;;;4.15;0.70;;;14.90;99.90;;;;;;4939573;29;20039;-79
2023/10/19 07:32:41;;;;;;;5.15;0.90;;;14.90;99.90;;;;;;4956920;29;20471;-77
2023/10/19 07:35:07;;;;;;;4.30;0.70;;;15.00;99.90;;;;;;4956516;29;20039;-80
2023/10/19 07:37:33;;;;;;;3.67;0.70;;;15.00;99.90;;;;;;4939352;29;20058;-79
2023/10/19 07:39:58;;;;;;;6.40;0.73;;;15.00;99.90;;;;;;4956432;29;20039;-79
2023/10/19 07:42:25;;;;;;;4.85;1.23;;;15.00;99.90;;;;;;4939004;29;20114;-78
2023/10/19 07:44:51;;;;;;;4.10;0.70;;;15.00;99.90;;;;;;4939370;29;20047;-78
2023/10/19 07:47:16;;;;;;;3.17;0.77;;;15.10;99.90;;;;;;4955423;28;20035;-78
2023/10/19 07:49:43;;;;;;;7.03;0.80;;;15.10;99.90;;;;;;4956587;29;20118;-78
2023/10/19 07:52:10;;;;;;;8.27;1.10;;;15.10;99.90;;;;;;4939286;29;20050;-78
2023/10/19 07:54:37;;;;;;;5.47;0.70;;;15.20;99.90;;;;;;4939046;29;20031;-78
2023/10/19 07:57:06;;;;;;;4.57;0.85;;;15.20;99.90;;;;;;4938679;29;20027;-77
2023/10/19 07:59:35;;;;;;;6.90;0.85;;;15.20;99.90;;;;;;4956391;29;20027;-78
2023/10/19 08:02:02;;;;;;;5.32;0.90;;;15.20;99.90;;;;;;4939075;29;20534;-78
2023/10/19 08:04:28;;;;;;;6.90;1.08;;;15.20;99.90;;;;;;4956618;29;20054;-79
2023/10/19 08:06:55;;;;;;;5.55;0.65;;;15.20;99.90;;;;;;4956419;29;20027;-79
2023/10/19 08:09:26;;;;;;;6.72;0.95;;;15.30;99.90;;;;;;4955921;29;20031;-79
2023/10/19 08:11:55;;;;;;;7.32;1.35;;;15.30;99.90;;;;;;4956086;29;20102;-79
2023/10/19 08:14:24;;;;;;;4.38;0.70;;;15.30;99.90;;;;;;4955808;29;20035;-79
2023/10/19 08:16:50;;;;;;;3.80;0.60;;;15.30;99.90;;;;;;4956006;29;20035;-79
2023/10/19 08:19:16;;;;;;;4.38;0.90;;;15.40;99.90;;;;;;4956199;29;20035;-80
2023/10/19 08:21:42;;;;;;;7.55;1.45;;;15.40;99.90;;;;;;4956116;29;20365;-80
2023/10/19 08:24:13;;;;;;;9.98;1.77;;;15.40;99.90;;;;;;4955531;29;20038;-78
2023/10/19 08:26:41;;;;;;;4.50;0.60;;;15.50;99.90;;;;;;4955833;29;20031;-79
2023/10/19 08:29:12;;;;;;;5.15;0.77;;;15.50;99.90;;;;;;4955683;29;20079;-79
2023/10/19 08:31:39;;;;;;;7.18;0.90;;;15.50;99.90;;;;;;4955903;29;20038;-78
2023/10/19 08:34:05;;;;;;;5.07;0.90;;;15.60;99.90;;;;;;4955612;29;20506;-79
2023/10/19 08:36:31;;;;;;;6.35;1.05;;;15.60;99.90;;;;;;4938130;29;20046;-78
2023/10/19 08:38:57;;;;;;;7.78;0.68;;;15.60;99.90;;;;;;4954979;29;20038;-78
2023/10/19 08:41:23;;;;;;;7.38;0.95;;;15.60;99.90;;;;;;4955722;29;20111;-79
2023/10/19 08:43:50;;;;;;;7.35;0.90;;;15.60;99.90;;;;;;4955721;29;20365;-78
2023/10/19 08:46:16;;;;;;;4.75;0.77;;;15.70;99.90;;;;;;4955525;29;20039;-79
2023/10/19 08:48:42;;;;;;;7.40;0.80;;;15.80;99.90;;;;;;4955617;29;20480;-79
2023/10/19 08:51:12;;;;;;;6.55;1.05;;;15.80;99.90;;;;;;4938145;29;20031;-79
2023/10/19 08:53:40;;;;;;;4.95;0.77;;;15.90;99.90;;;;;;4955297;29;20038;-79
2023/10/19 08:56:07;;;;;;;6.82;1.20;;;15.90;99.90;;;;;;4955586;29;20031;-79
2023/10/19 08:58:34;;;;;;;3.97;1.00;;;16.00;99.90;;;;;;4937955;29;20028;-79
2023/10/19 09:01:06;;;;;;;7.70;0.80;;;16.00;99.90;;;;;;4954859;29;20035;-79
2023/10/19 09:03:32;;;;;;;4.80;0.70;;;16.10;99.90;;;;;;4955174;29;20039;-79
2023/10/19 09:06:01;;;;;;;5.30;0.90;;;16.20;99.90;;;;;;4937981;29;20040;-79
2023/10/19 09:08:38;;;;;;;6.78;0.90;;;16.20;99.90;;;;;;4937818;29;20192;-78
2023/10/19 09:11:11;;;;;;;6.30;1.30;;;16.30;99.90;;;;;;4955058;29;20063;-79
2023/10/19 09:14:06;;;;;;;4.32;0.80;;;16.30;99.90;;;;;;4954656;29;20031;-79
2023/10/19 09:16:32;;;;;;;6.07;0.85;;;16.40;99.90;;;;;;4953543;29;20039;-79
2023/10/19 09:18:57;;;;;;;5.70;1.10;;;16.40;99.90;;;;;;4955246;29;20131;-79
2023/10/19 09:21:27;;;;;;;8.48;0.90;;;16.40;99.90;;;;;;4955183;29;20114;-79
2023/10/19 09:23:54;;;;;;;6.82;1.10;;;16.40;99.90;;;;;;4937497;29;20035;-80
2023/10/19 09:26:21;;;;;;;7.45;1.00;;;16.50;99.90;;;;;;4955165;29;20040;-79
2023/10/19 09:28:51;;;;;;;7.00;1.02;;;16.50;99.90;;;;;;4954769;29;20024;-80
2023/10/19 09:31:18;;;;;;;4.97;0.77;;;16.60;99.90;;;;;;4955095;29;20439;-79
2023/10/19 09:33:45;;;;;;;12.98;1.45;;;16.60;99.90;;;;;;4954956;29;20039;-77
2023/10/19 09:36:13;;;;;;;6.38;1.20;;;16.80;99.90;;;;;;4954800;29;20403;-78
2023/10/19 09:38:50;;;;;;;6.82;1.05;;;16.90;99.90;;;;;;4954636;29;20031;-80
2023/10/19 09:41:21;;;;;;;4.80;0.93;;;17.10;99.90;;;;;;4954807;29;20058;-79
2023/10/19 09:43:48;;;;;;;6.72;0.90;;;17.30;99.90;;;;;;4937611;29;20404;-78
2023/10/19 09:46:38;;;;;;;7.75;1.10;;;17.40;99.90;;;;;;4954853;29;20484;-78
2023/10/19 09:49:06;;;;;;;6.97;0.70;;;17.50;99.90;;;;;;4955065;29;20130;-79
2023/10/19 09:51:33;;;;;;;3.08;0.70;;;17.60;99.90;;;;;;4954148;29;20399;-78
2023/10/19 09:54:20;;;;;;;4.75;0.95;;;17.60;99.90;;;;;;4954563;29;20043;-78
2023/10/19 09:56:54;;;;;;;6.95;1.10;;;17.80;99.90;;;;;;4954906;29;20039;-78
2023/10/19 09:59:26;;;;;;;;;;;18.10;99.90;;;;;;4937960;29;20047;-79
2023/10/19 10:02:15;;;;;;;3.65;0.70;;;18.70;99.90;;;;;;4937634;29;20056;-79
2023/10/19 10:04:41;;;;;;;6.75;1.25;;;19.60;99.90;;;;;;4937641;29;20040;-79
2023/10/19 10:07:09;;;;;;;3.47;0.90;;;20.50;99.90;;;;;;4954500;29;20042;-79
2023/10/19 10:09:40;;;;;;;4.80;0.60;;;21.40;99.90;;;;;;4955271;28;20118;-80
2023/10/19 10:12:21;;;;;;;4.55;0.73;;;22.10;99.90;;;;;;4941313;29;20031;-79
2023/10/19 10:15:02;;;;;;;4.68;0.80;;;22.50;99.90;;;;;;4957876;29;20043;-79
2023/10/19 10:17:29;;;;;;;6.07;0.90;;;22.90;99.90;;;;;;4958318;29;20023;-79
2023/10/19 10:20:18;;;;;;;3.95;0.70;;;23.20;99.20;;;;;;4940818;29;20031;-79
2023/10/19 10:22:44;;;;;;;3.00;0.60;;;23.60;96.30;;;;;;4958177;29;20035;-78
2023/10/19 10:25:30;;;;;;;4.15;0.98;;;23.60;94.50;;;;;;4958414;29;20043;-79
2023/10/19 10:27:56;;;;;;;5.85;0.70;;;23.60;92.50;;;;;;4940707;29;20062;-79
2023/10/19 10:30:22;;;;;;;6.40;0.70;;;23.40;91.20;;;;;;4958093;29;20066;-81
2023/10/19 10:32:53;;;;;;;5.00;1.02;;;23.20;90.40;;;;;;4958210;29;20040;-79
2023/10/19 10:35:38;;;;;;;5.30;1.30;;;23.00;89.10;;;;;;4957735;29;20043;-80
2023/10/19 10:38:13;;;;;;;6.30;0.90;;;22.60;87.20;;;;;;4957897;29;20122;-78
2023/10/19 10:40:47;;;;;;;6.95;1.08;;;22.30;86.40;;;;;;4959218;29;20044;-79
2023/10/19 10:43:13;;;;;;;6.70;0.98;;;22.10;86.50;;;;;;4958649;29;20045;-80
2023/10/19 10:45:39;;;;;;;8.40;0.93;;;21.90;86.10;;;;;;4940640;29;20284;-79
2023/10/19 10:48:14;;;;;;;10.88;1.33;;;21.70;86.10;;;;;;4957494;29;20074;-79
2023/10/19 10:50:41;;;;;;;5.13;0.80;;;21.60;86.30;;;;;;4940065;29;20039;-78
2023/10/19 10:53:07;;;;;;;6.15;0.95;;;21.60;86.30;;;;;;4957711;29;20062;-79
2023/10/19 10:55:33;;;;;;;6.65;0.80;;;21.50;86.20;;;;;;4957983;29;20555;-79
2023/10/19 10:57:59;;;;;;;5.85;1.10;;;21.50;86.30;;;;;;4957361;29;20035;-79
2023/10/19 11:00:28;;;;;;;4.13;0.80;;;21.40;86.20;;;;;;4940581;29;20118;-79
2023/10/19 11:03:04;;;;;;;5.72;1.15;;;21.30;86.20;;;;;;4957605;29;20054;-78
2023/10/19 11:05:31;;;;;;;5.93;0.90;;;21.30;86.30;;;;;;4939995;29;20031;-79
2023/10/19 11:08:13;;;;;;;6.57;1.15;;;21.20;86.50;;;;;;4940199;29;20032;-79
2023/10/19 11:10:39;;;;;;;8.25;1.20;;;21.20;86.70;;;;;;4957220;29;20043;-78
2023/10/19 11:13:06;;;;;;;5.22;1.00;;;21.10;87.00;;;;;;4957036;29;20035;-79
2023/10/19 11:15:33;;;;;;;4.47;0.90;;;21.30;87.80;;;;;;4957281;29;20028;-80
2023/10/19 11:17:59;;;;;;;5.72;0.90;;;21.60;88.40;;;;;;4957072;29;20391;-79
2023/10/19 11:20:27;;;;;;;7.97;1.60;;;21.90;88.40;;;;;;4956713;28;20036;-80
2023/10/19 11:22:55;;;;;;;4.15;0.63;;;22.30;88.60;;;;;;4940231;29;20499;-81
2023/10/19 11:25:28;;;;;;;5.75;0.85;;;22.80;89.40;;;;;;4939793;29;20447;-79
2023/10/19 11:27:58;;;;;;;7.07;1.17;;;23.50;89.00;;;;;;4939956;29;20038;-79
2023/10/19 11:30:32;;;;;;;8.13;1.33;;;24.30;88.50;;;;;;4956827;29;20035;-79
2023/10/19 11:32:59;;;;;;;5.28;0.73;;;24.70;85.50;;;;;;4956881;29;20571;-79
2023/10/19 11:35:30;;;;;;;6.10;0.82;;;24.70;82.20;;;;;;4956889;29;20035;-79
2023/10/19 11:37:58;;;;;;;6.00;1.15;;;24.60;79.40;;;;;;4957271;29;20043;-79
2023/10/19 11:40:25;;;;;;;7.15;0.95;;;24.30;77.60;;;;;;4957132;29;20384;-79
2023/10/19 11:42:52;;;;;;;5.30;0.60;;;24.10;78.50;;;;;;4956715;29;20035;-79
2023/10/19 11:45:18;;;;;;;5.15;0.80;;;24.30;79.50;;;;;;4956799;29;20075;-79
2023/10/19 11:47:45;;;;;;;5.78;1.17;;;24.90;79.70;;;;;;4939322;29;20038;-80
2023/10/19 11:50:17;;;;;;;4.60;0.90;;;25.10;77.60;;;;;;4957072;29;20467;-80
2023/10/19 14:18:39;;;;;;;5.90;1.40;;;19.60;88.30;;;;;;4965768;28;20114;-78
2023/10/19 14:21:16;;;;;;;5.50;1.40;;;19.50;88.70;;;;;;4954232;28;20035;-78
2023/10/19 14:23:43;;;;;;;6.88;1.60;;;19.50;89.00;;;;;;4954149;28;20068;-78
2023/10/19 14:26:09;;;;;;;3.92;1.42;;;19.50;89.30;;;;;;4954182;28;20043;-78
2023/10/19 14:28:35;;;;;;;6.82;1.63;;;19.40;89.70;;;;;;4953519;28;20424;-78
2023/10/19 14:31:03;;;;;;;9.52;2.10;;;19.30;90.00;;;;;;4953827;28;20035;-78
2023/10/19 14:33:30;;;;;;;8.27;1.50;;;19.30;90.20;;;;;;4953823;29;20118;-78
2023/10/19 14:35:55;;;;;;;6.25;1.52;;;19.20;90.40;;;;;;4937314;29;20456;-79
2023/10/19 14:38:21;;;;;;;8.35;1.45;;;19.20;90.50;;;;;;4953778;28;20071;-79
2023/10/19 14:40:48;;;;;;;5.63;1.45;;;19.10;90.60;;;;;;4953710;28;20074;-79
2023/10/19 14:43:14;;;;;;;8.75;1.30;;;19.10;90.90;;;;;;4953421;28;20365;-79
2023/10/19 14:45:42;;;;;;;6.43;1.33;;;19.00;90.90;;;;;;4953767;29;20072;-78
2023/10/19 14:48:10;;;;;;;6.25;1.20;;;19.00;91.00;;;;;;4953840;28;20036;-79
2023/10/19 14:50:35;;;;;;;6.70;1.35;;;19.00;91.20;;;;;;4936392;29;20023;-78
2023/10/19 14:53:02;;;;;;;7.07;1.90;;;18.90;91.30;;;;;;4953711;28;20036;-79
2023/10/19 14:55:28;;;;;;;4.85;1.10;;;18.90;91.40;;;;;;4954020;28;20040;-78
2023/10/19 14:57:55;;;;;;;4.00;1.00;;;18.90;91.50;;;;;;4956694;28;20038;-79
2023/10/19 15:00:25;;;;;;;7.95;1.98;;;18.90;91.60;;;;;;4957010;28;20028;-78
2023/10/19 15:02:56;;;;;;;8.93;1.85;;;18.90;91.80;;;;;;4956835;28;20091;-78
2023/10/19 15:05:27;;;;;;;6.78;1.55;;;18.80;91.90;;;;;;4956931;28;20361;-79
2023/10/19 15:07:53;;;;;;;6.85;1.45;;;18.80;91.90;;;;;;4939808;29;20037;-78
2023/10/19 15:10:21;;;;;;;7.55;1.48;;;18.70;92.10;;;;;;4956307;29;20027;-78
2023/10/19 15:12:46;;;;;;;10.77;1.70;;;18.70;92.20;;;;;;4939397;29;20379;-78
2023/10/19 15:15:13;;;;;;;8.13;1.30;;;18.60;92.20;;;;;;4956732;28;20039;-78
2023/10/19 15:17:46;;;;;;;8.10;1.50;;;18.60;92.30;;;;;;4939483;29;20035;-78
2023/10/19 15:20:14;;;;;;;6.88;1.42;;;18.60;92.30;;;;;;4956717;29;20177;-78
2023/10/19 15:22:44;;;;;;;9.30;1.40;;;18.50;92.40;;;;;;4956404;28;20031;-78
2023/10/19 15:25:14;;;;;;;7.28;1.63;;;18.50;92.50;;;;;;4956141;28;20043;-78
2023/10/19 15:27:42;;;;;;;6.97;1.63;;;18.40;92.70;;;;;;4956749;28;20043;-79
2023/10/19 15:30:11;;;;;;;7.47;1.60;;;18.50;92.80;;;;;;4956525;29;20423;-80
2023/10/19 15:32:42;;;;;;;5.20;1.15;;;18.40;92.90;;;;;;4939231;29;20126;-79
2023/10/19 15:35:15;;;;;;;7.60;1.40;;;18.40;92.90;;;;;;4956417;28;20040;-80
2023/10/19 15:37:42;;;;;;;4.50;1.20;;;18.40;92.90;;;;;;4956512;28;20046;-79
2023/10/19 15:40:12;;;;;;;5.30;1.05;;;18.40;93.00;;;;;;4942098;29;20145;-79